createdAt,value
2022-09-10T00:00:00.809Z,96717.84
2022-09-10T00:01:02.318Z,96715.00
2022-09-10T00:02:03.952Z,96708.03
2022-09-10T00:03:06.068Z,96720.47
2022-09-10T00:04:11.675Z,96717.69
2022-09-10T00:05:13.449Z,96723.00
2022-09-10T00:06:15.985Z,96723.28
2022-09-10T00:07:18.651Z,96725.50
2022-09-10T00:08:21.031Z,96722.31
2022-09-10T00:09:23.556Z,96723.53
2022-09-10T00:10:26.373Z,96720.16
2022-09-10T00:11:32.468Z,96722.25
2022-09-10T00:12:35.275Z,96711.09
2022-09-10T00:13:39.327Z,96713.63
2022-09-10T00:14:40.847Z,96718.75
2022-09-10T00:15:51.558Z,96721.50
2022-09-10T00:16:53.225Z,96717.63
2022-09-10T00:17:54.779Z,96715.41
2022-09-10T00:19:00.145Z,96720.16
2022-09-10T00:20:01.970Z,96713.19
2022-09-10T00:21:07.619Z,96709.78
2022-09-10T00:22:10.419Z,96707.09
2022-09-10T00:23:12.107Z,96711.06
2022-09-10T00:24:14.067Z,96712.63
2022-09-10T00:25:15.631Z,96707.91
2022-09-10T00:26:23.249Z,96711.81
2022-09-10T00:27:24.742Z,96715.19
2022-09-10T00:28:27.861Z,96711.59
2022-09-10T00:29:29.400Z,96711.06
2022-09-10T00:30:30.906Z,96714.47
2022-09-10T00:31:35.141Z,96711.34
2022-09-10T00:32:38.422Z,96713.56
2022-09-10T00:33:40.146Z,96717.41
2022-09-10T00:34:41.717Z,96716.56
2022-09-10T00:35:44.333Z,96720.47
2022-09-10T00:36:46.779Z,96717.34
2022-09-10T00:37:48.504Z,96715.75
2022-09-10T00:38:51.507Z,96709.50
2022-09-10T00:39:53.188Z,96711.81
2022-09-10T00:40:54.771Z,96714.13
2022-09-10T00:41:57.795Z,96720.41
2022-09-10T00:42:59.589Z,96714.22
2022-09-10T00:44:05.110Z,96716.56
2022-09-10T00:45:07.356Z,96720.41
2022-09-10T00:47:17.279Z,96717.22
2022-09-10T00:48:36.681Z,96727.75
2022-09-10T00:49:42.415Z,96723.41
2022-09-10T00:50:47.139Z,96732.75
2022-09-10T00:51:52.645Z,96730.31
2022-09-10T00:53:01.077Z,96732.25
2022-09-10T00:54:04.106Z,96740.81
2022-09-10T00:55:06.356Z,96742.03
2022-09-10T00:56:07.904Z,96740.94
2022-09-10T00:57:17.318Z,96739.09
2022-09-10T00:58:20.812Z,96733.72
2022-09-10T00:59:26.566Z,96729.16
2022-09-10T01:00:28.163Z,96716.84
2022-09-10T01:01:30.949Z,96725.53
2022-09-10T01:02:32.457Z,96725.66
2022-09-10T01:03:34.555Z,96728.06
2022-09-10T01:04:36.487Z,96717.94
2022-09-10T01:05:40.330Z,96710.22
2022-09-10T01:06:45.744Z,96707.13
2022-09-10T01:07:48.180Z,96707.91
2022-09-10T01:08:49.681Z,96697.00
2022-09-10T01:09:51.757Z,96700.44
2022-09-10T01:11:42.452Z,96704.72
2022-09-10T01:12:46.716Z,96701.78
2022-09-10T01:14:32.991Z,96695.31
2022-09-10T01:16:05.112Z,96691.16
2022-09-10T01:17:25.852Z,96692.44
2022-09-10T01:18:49.622Z,96696.78
2022-09-10T01:20:08.991Z,96696.00
2022-09-10T01:21:19.337Z,96697.91
2022-09-10T01:22:42.509Z,96704.34
2022-09-10T01:24:02.319Z,96687.13
2022-09-10T01:25:10.614Z,96683.91
2022-09-10T01:26:30.107Z,96675.25
2022-09-10T01:27:40.239Z,96680.59
2022-09-10T01:28:51.279Z,96678.16
2022-09-10T01:30:03.667Z,96677.31
2022-09-10T01:31:14.897Z,96678.84
2022-09-10T01:32:29.714Z,96680.84
2022-09-10T01:33:43.184Z,96678.16
2022-09-10T01:35:03.897Z,96681.28
2022-09-10T01:36:12.674Z,96680.84
2022-09-10T01:37:21.738Z,96682.72
2022-09-10T01:38:27.764Z,96683.38
2022-09-10T01:39:29.581Z,96679.78
2022-09-10T01:40:33.299Z,96674.69
2022-09-10T01:41:35.000Z,96666.09
2022-09-10T01:42:38.477Z,96669.59
2022-09-10T01:43:41.486Z,96656.69
2022-09-10T01:44:44.691Z,96661.41
2022-09-10T01:45:59.806Z,96659.03
2022-09-10T01:47:14.745Z,96663.78
2022-09-10T01:48:35.078Z,96659.88
2022-09-10T01:49:58.569Z,96662.28
2022-09-10T01:51:12.668Z,96668.81
2022-09-10T01:52:36.082Z,96667.59
2022-09-10T01:53:47.247Z,96672.22
2022-09-10T01:55:13.206Z,96670.66
2022-09-10T01:56:35.656Z,96674.50
2022-09-10T01:57:53.022Z,96669.16
2022-09-10T01:59:03.936Z,96672.03
2022-09-10T02:00:14.608Z,96681.88
2022-09-10T02:01:29.361Z,96686.69
2022-09-10T02:02:37.198Z,96690.75
2022-09-10T02:03:41.824Z,96683.00
2022-09-10T02:04:46.107Z,96684.22
2022-09-10T02:05:51.386Z,96684.22
2022-09-10T02:06:53.148Z,96681.56
2022-09-10T02:08:02.004Z,96678.47
2022-09-10T02:09:05.487Z,96683.13
2022-09-10T02:10:08.918Z,96686.63
2022-09-10T02:11:14.309Z,96683.91
2022-09-10T02:12:21.045Z,96690.19
2022-09-10T02:13:23.952Z,96694.53
2022-09-10T02:14:26.433Z,96684.78
2022-09-10T02:15:29.506Z,96698.81
2022-09-10T02:16:37.745Z,96694.22
2022-09-10T02:17:40.935Z,96694.66
2022-09-10T02:18:43.582Z,96688.81
2022-09-10T02:19:46.946Z,96695.44
2022-09-10T02:20:50.861Z,96701.28
2022-09-10T02:21:56.154Z,96691.53
2022-09-10T02:22:59.834Z,96695.91
2022-09-10T02:24:05.988Z,96688.50
2022-09-10T02:25:09.895Z,96695.81
2022-09-10T02:26:14.483Z,96694.91
2022-09-10T02:27:16.189Z,96694.09
2022-09-10T02:28:17.799Z,96694.88
2022-09-10T02:29:19.495Z,96695.31
2022-09-10T02:30:21.030Z,96696.44
2022-09-10T02:31:22.637Z,96701.81
2022-09-10T02:32:24.438Z,96696.31
2022-09-10T02:33:26.038Z,96703.28
2022-09-10T02:34:27.611Z,96702.44
2022-09-10T02:35:31.152Z,96710.19
2022-09-10T02:36:33.157Z,96708.22
2022-09-10T02:37:35.571Z,96712.13
2022-09-10T02:38:37.142Z,96711.75
2022-09-10T02:39:40.132Z,96720.38
2022-09-10T02:40:43.202Z,96716.81
2022-09-10T02:41:45.543Z,96712.13
2022-09-10T02:42:47.415Z,96714.09
2022-09-10T02:43:49.670Z,96719.19
2022-09-10T02:44:51.210Z,96712.56
2022-09-10T02:45:57.258Z,96716.41
2022-09-10T02:46:58.828Z,96716.38
2022-09-10T02:48:00.480Z,96709.34
2022-09-10T02:49:01.997Z,96707.75
2022-09-10T02:50:03.712Z,96702.28
2022-09-10T02:51:05.760Z,96705.47
2022-09-10T02:52:07.338Z,96711.84
2022-09-10T02:53:08.938Z,96704.94
2022-09-10T02:54:10.590Z,96706.59
2022-09-10T02:55:13.307Z,96712.19
2022-09-10T02:56:15.411Z,96701.00
2022-09-10T02:57:16.912Z,96700.72
2022-09-10T02:58:18.499Z,96703.47
2022-09-10T02:59:20.022Z,96702.66
2022-09-10T03:00:22.271Z,96703.09
2022-09-10T03:01:24.033Z,96705.06
2022-09-10T03:02:25.912Z,96706.19
2022-09-10T03:03:28.862Z,96701.44
2022-09-10T03:04:30.366Z,96712.25
2022-09-10T03:05:32.780Z,96705.91
2022-09-10T03:06:34.334Z,96708.22
2022-09-10T03:07:35.850Z,96702.78
2022-09-10T03:08:37.570Z,96700.47
2022-09-10T03:09:41.078Z,96695.81
2022-09-10T03:10:42.605Z,96696.97
2022-09-10T03:11:44.139Z,96687.22
2022-09-10T03:12:45.808Z,96683.66
2022-09-10T03:13:48.004Z,96683.22
2022-09-10T03:14:50.410Z,96678.50
2022-09-10T03:15:52.872Z,96683.13
2022-09-10T03:16:55.047Z,96677.22
2022-09-10T03:17:56.587Z,96668.53
2022-09-10T03:18:58.110Z,96669.66
2022-09-10T03:19:59.943Z,96661.09
2022-09-10T03:21:18.980Z,96657.13
2022-09-10T03:22:20.580Z,96650.91
2022-09-10T03:23:22.111Z,96651.66
2022-09-10T03:24:25.276Z,96650.03
2022-09-10T03:25:26.866Z,96650.75
2022-09-10T03:26:28.473Z,96646.03
2022-09-10T03:27:30.324Z,96655.38
2022-09-10T03:28:33.168Z,96649.13
2022-09-10T03:29:34.763Z,96642.84
2022-09-10T03:30:37.726Z,96646.34
2022-09-10T03:31:39.732Z,96651.84
2022-09-10T03:32:41.476Z,96643.66
2022-09-10T03:33:43.043Z,96653.03
2022-09-10T03:34:44.556Z,96649.94
2022-09-10T03:35:46.056Z,96646.41
2022-09-10T03:36:47.634Z,96648.38
2022-09-10T03:37:49.416Z,96653.03
2022-09-10T03:38:51.015Z,96651.47
2022-09-10T03:39:52.658Z,96647.56
2022-09-10T03:40:54.919Z,96655.38
2022-09-10T03:41:56.433Z,96653.84
2022-09-10T03:42:57.943Z,96656.22
2022-09-10T03:43:59.460Z,96660.91
2022-09-10T03:45:01.015Z,96650.78
2022-09-10T03:46:03.014Z,96658.63
2022-09-10T03:47:05.036Z,96656.34
2022-09-10T03:48:06.623Z,96646.31
2022-09-10T03:49:08.484Z,96649.56
2022-09-10T03:50:10.014Z,96654.31
2022-09-10T03:51:11.527Z,96650.06
2022-09-10T03:52:13.477Z,96649.78
2022-09-10T03:53:16.621Z,96653.00
2022-09-10T03:54:18.131Z,96656.94
2022-09-10T03:55:19.647Z,96655.47
2022-09-10T03:56:21.309Z,96661.00
2022-09-10T03:57:23.283Z,96654.81
2022-09-10T03:58:24.838Z,96664.91
2022-09-10T03:59:26.372Z,96661.78
2022-09-10T04:00:27.992Z,96663.75
2022-09-10T04:01:30.079Z,96662.22
2022-09-10T04:02:31.770Z,96660.66
2022-09-10T04:03:33.384Z,96660.25
2022-09-10T04:04:37.330Z,96657.09
2022-09-10T04:05:40.637Z,96657.03
2022-09-10T04:06:42.624Z,96652.69
2022-09-10T04:07:44.148Z,96658.88
2022-09-10T04:08:49.693Z,96661.16
2022-09-10T04:09:51.899Z,96663.81
2022-09-10T04:10:53.426Z,96652.50
2022-09-10T04:11:55.123Z,96654.41
2022-09-10T04:12:56.724Z,96660.63
2022-09-10T04:13:58.288Z,96652.00
2022-09-10T04:15:04.480Z,96657.91
2022-09-10T04:16:06.223Z,96661.53
2022-09-10T04:17:07.809Z,96661.25
2022-09-10T04:18:11.613Z,96660.19
2022-09-10T04:19:13.158Z,96650.97
2022-09-10T04:20:14.909Z,96653.81
2022-09-10T04:21:16.435Z,96653.09
2022-09-10T04:22:17.996Z,96652.78
2022-09-10T04:23:20.043Z,96652.44
2022-09-10T04:24:21.591Z,96654.44
2022-09-10T04:25:24.099Z,96658.03
2022-09-10T04:26:25.622Z,96654.16
2022-09-10T04:27:28.631Z,96662.31
2022-09-10T04:28:31.375Z,96661.59
2022-09-10T04:29:32.968Z,96663.13
2022-09-10T04:30:34.507Z,96665.47
2022-09-10T04:31:36.088Z,96656.16
2022-09-10T04:32:37.806Z,96656.16
2022-09-10T04:33:39.491Z,96655.75
2022-09-10T04:34:41.133Z,96658.06
2022-09-10T04:35:43.494Z,96660.78
2022-09-10T04:36:44.998Z,96669.72
2022-09-10T04:37:46.885Z,96668.53
2022-09-10T04:38:48.431Z,96677.81
2022-09-10T04:39:50.091Z,96680.84
2022-09-10T04:40:51.797Z,96673.00
2022-09-10T04:41:53.389Z,96683.06
2022-09-10T04:42:54.930Z,96678.31
2022-09-10T04:43:56.453Z,96684.91
2022-09-10T04:44:58.375Z,96691.44
2022-09-10T04:45:59.968Z,96690.22
2022-09-10T04:47:01.616Z,96689.00
2022-09-10T04:48:06.846Z,96694.41
2022-09-10T04:49:08.722Z,96680.34
2022-09-10T04:50:10.614Z,96686.63
2022-09-10T04:51:17.419Z,96684.28
2022-09-10T04:52:22.720Z,96675.31
2022-09-10T04:53:25.155Z,96664.84
2022-09-10T04:54:26.660Z,96663.66
2022-09-10T04:55:31.210Z,96657.78
2022-09-10T04:56:32.900Z,96662.44
2022-09-10T04:57:34.479Z,96666.28
2022-09-10T04:58:39.110Z,96664.31
2022-09-10T04:59:41.153Z,96667.75
2022-09-10T05:00:42.735Z,96672.75
2022-09-10T05:01:44.308Z,96677.38
2022-09-10T05:02:46.672Z,96675.34
2022-09-10T05:03:48.177Z,96673.78
2022-09-10T05:04:50.906Z,96677.22
2022-09-10T05:05:52.488Z,96672.44
2022-09-10T05:06:54.037Z,96678.28
2022-09-10T05:07:55.707Z,96676.66
2022-09-10T05:08:57.341Z,96682.88
2022-09-10T05:09:58.939Z,96677.44
2022-09-10T05:11:02.797Z,96685.34
2022-09-10T05:12:04.661Z,96682.69
2022-09-10T05:13:06.424Z,96682.34
2022-09-10T05:14:07.901Z,96679.28
2022-09-10T05:15:10.029Z,96691.75
2022-09-10T05:16:12.477Z,96683.19
2022-09-10T05:17:14.059Z,96689.81
2022-09-10T05:18:16.686Z,96683.97
2022-09-10T05:19:18.287Z,96679.72
2022-09-10T05:20:20.363Z,96677.78
2022-09-10T05:21:22.677Z,96671.59
2022-09-10T05:22:24.257Z,96668.47
2022-09-10T05:23:26.295Z,96651.34
2022-09-10T05:24:27.981Z,96663.84
2022-09-10T05:25:29.542Z,96670.44
2022-09-10T05:26:31.112Z,96673.06
2022-09-10T05:27:32.692Z,96675.34
2022-09-10T05:28:34.258Z,96678.00
2022-09-10T05:29:35.805Z,96668.97
2022-09-10T05:30:37.526Z,96663.13
2022-09-10T05:31:39.080Z,96649.88
2022-09-10T05:32:41.091Z,96650.28
2022-09-10T05:33:43.173Z,96639.41
2022-09-10T05:34:48.618Z,96638.69
2022-09-10T05:35:53.207Z,96640.59
2022-09-10T05:36:55.816Z,96650.28
2022-09-10T05:37:57.764Z,96647.44
2022-09-10T05:39:00.688Z,96652.06
2022-09-10T05:40:08.108Z,96650.81
2022-09-10T05:41:10.738Z,96646.09
2022-09-10T05:42:12.708Z,96642.13
2022-09-10T05:43:14.203Z,96634.38
2022-09-10T05:44:17.529Z,96624.31
2022-09-10T05:45:20.350Z,96615.88
2022-09-10T05:46:22.624Z,96617.09
2022-09-10T05:47:24.187Z,96621.34
2022-09-10T05:48:25.730Z,96625.16
2022-09-10T05:49:27.669Z,96628.28
2022-09-10T05:50:30.366Z,96628.19
2022-09-10T05:51:31.943Z,96620.31
2022-09-10T05:52:33.709Z,96616.31
2022-09-10T05:53:35.350Z,96614.25
2022-09-10T05:54:36.947Z,96621.28
2022-09-10T05:55:38.551Z,96622.38
2022-09-10T05:56:40.222Z,96613.72
2022-09-10T05:57:41.760Z,96609.09
2022-09-10T05:58:45.112Z,96629.38
2022-09-10T05:59:46.870Z,96633.28
2022-09-10T06:00:51.872Z,96648.13
2022-09-10T06:01:53.643Z,96648.13
2022-09-10T06:02:57.261Z,96659.53
2022-09-10T06:03:59.646Z,96668.22
2022-09-10T06:05:01.230Z,96670.19
2022-09-10T06:06:02.743Z,96656.09
2022-09-10T06:07:04.712Z,96646.88
2022-09-10T06:08:09.021Z,96636.91
2022-09-10T06:09:10.734Z,96635.81
2022-09-10T06:10:12.290Z,96630.06
2022-09-10T06:11:13.913Z,96641.03
2022-09-10T06:12:17.162Z,96637.19
2022-09-10T06:13:20.697Z,96633.81
2022-09-10T06:14:22.485Z,96637.31
2022-09-10T06:15:25.503Z,96633.47
2022-09-10T06:16:27.671Z,96635.03
2022-09-10T06:17:29.323Z,96644.47
2022-09-10T06:18:32.022Z,96655.38
2022-09-10T06:19:33.540Z,96654.56
2022-09-10T06:20:35.059Z,96663.84
2022-09-10T06:21:36.655Z,96672.38
2022-09-10T06:22:38.770Z,96680.13
2022-09-10T06:23:40.319Z,96668.00
2022-09-10T06:24:42.217Z,96668.38
2022-09-10T06:25:44.629Z,96665.25
2022-09-10T06:26:50.127Z,96671.88
2022-09-10T06:27:51.765Z,96672.63
2022-09-10T06:28:55.144Z,96679.28
2022-09-10T06:29:56.818Z,96680.06
2022-09-10T06:30:58.565Z,96677.75
2022-09-10T06:32:00.523Z,96687.13
2022-09-10T06:33:02.198Z,96696.50
2022-09-10T06:34:03.940Z,96691.06
2022-09-10T06:35:06.409Z,96685.66
2022-09-10T06:36:11.141Z,96682.56
2022-09-10T06:37:13.298Z,96691.06
2022-09-10T06:38:14.840Z,96690.28
2022-09-10T06:39:17.062Z,96687.13
2022-09-10T06:40:18.751Z,96690.63
2022-09-10T06:41:20.379Z,96688.69
2022-09-10T06:42:23.848Z,96699.16
2022-09-10T06:43:28.711Z,96705.38
2022-09-10T06:44:30.295Z,96703.44
2022-09-10T06:45:32.439Z,96703.44
2022-09-10T06:49:17.052Z,96714.97
2022-09-10T06:50:18.573Z,96712.59
2022-09-10T06:51:20.180Z,96723.03
2022-09-10T06:52:21.743Z,96714.41
2022-09-10T06:53:25.082Z,96720.97
2022-09-10T06:54:26.666Z,96718.53
2022-09-10T06:55:28.214Z,96722.06
2022-09-10T06:56:30.218Z,96720.53
2022-09-10T06:57:31.791Z,96720.88
2022-09-10T06:58:36.286Z,96718.59
2022-09-10T06:59:38.627Z,96723.31
2022-09-10T07:00:40.166Z,96720.66
2022-09-10T07:01:41.794Z,96710.22
2022-09-10T07:02:43.392Z,96711.81
2022-09-10T07:03:45.806Z,96707.84
2022-09-10T07:04:47.351Z,96716.47
2022-09-10T07:05:49.315Z,96705.56
2022-09-10T07:06:51.513Z,96709.50
2022-09-10T07:07:53.041Z,96698.69
2022-09-10T07:08:58.237Z,96697.13
2022-09-10T07:09:59.840Z,96696.38
2022-09-10T07:11:05.257Z,96693.25
2022-09-10T07:12:06.936Z,96693.66
2022-09-10T07:13:08.524Z,96695.97
2022-09-10T07:14:12.392Z,96692.41
2022-09-10T07:15:13.967Z,96699.94
2022-09-10T07:16:18.695Z,96701.53
2022-09-10T07:17:21.103Z,96703.91
2022-09-10T07:18:22.646Z,96700.25
2022-09-10T07:19:24.244Z,96706.28
2022-09-10T07:20:27.169Z,96702.81
2022-09-10T07:21:29.093Z,96700.53
2022-09-10T07:22:32.285Z,96700.31
2022-09-10T07:23:33.862Z,96700.28
2022-09-10T07:24:35.517Z,96703.66
2022-09-10T07:25:37.341Z,96695.31
2022-09-10T07:26:39.077Z,96698.75
2022-09-10T07:27:40.591Z,96698.16
2022-09-10T07:28:42.932Z,96700.63
2022-09-10T07:29:44.449Z,96695.28
2022-09-10T07:30:47.446Z,96706.81
2022-09-10T07:31:49.100Z,96700.03
2022-09-10T07:32:50.667Z,96703.41
2022-09-10T07:33:52.867Z,96707.16
2022-09-10T07:34:55.983Z,96703.97
2022-09-10T07:36:00.854Z,96705.72
2022-09-10T07:37:02.367Z,96703.75
2022-09-10T07:38:11.684Z,96705.50
2022-09-10T07:39:13.201Z,96697.25
2022-09-10T07:40:15.420Z,96699.09
2022-09-10T07:41:17.128Z,96701.78
2022-09-10T07:42:18.725Z,96699.84
2022-09-10T07:43:20.247Z,96695.38
2022-09-10T07:44:21.783Z,96698.25
2022-09-10T07:45:23.324Z,96693.22
2022-09-10T07:46:25.807Z,96695.44
2022-09-10T07:47:27.437Z,96701.47
2022-09-10T07:48:29.104Z,96701.47
2022-09-10T07:49:31.573Z,96695.50
2022-09-10T07:50:33.082Z,96687.25
2022-09-10T07:51:34.919Z,96693.63
2022-09-10T07:52:36.935Z,96676.00
2022-09-10T07:53:40.475Z,96680.72
2022-09-10T07:54:49.015Z,96680.25
2022-09-10T07:55:59.107Z,96676.56
2022-09-10T07:57:00.623Z,96674.91
2022-09-10T07:58:02.205Z,96674.00
2022-09-10T07:59:03.861Z,96680.00
2022-09-10T08:00:12.005Z,96672.31
2022-09-10T08:01:13.722Z,96671.03
2022-09-10T08:02:15.566Z,96663.13
2022-09-10T08:03:18.335Z,96667.81
2022-09-10T08:04:19.848Z,96658.88
2022-09-10T08:05:21.541Z,96665.06
2022-09-10T08:06:23.960Z,96665.44
2022-09-10T08:07:25.514Z,96653.97
2022-09-10T08:08:35.405Z,96662.13
2022-09-10T08:09:37.487Z,96663.06
2022-09-10T08:10:39.045Z,96658.50
2022-09-10T08:11:41.305Z,96662.13
2022-09-10T08:12:43.597Z,96670.75
2022-09-10T08:13:47.367Z,96662.13
2022-09-10T08:14:48.948Z,96660.06
2022-09-10T08:15:51.671Z,96654.97
2022-09-10T08:16:53.579Z,96658.72
2022-09-10T08:17:55.679Z,96657.78
2022-09-10T08:18:57.230Z,96657.22
2022-09-10T08:19:59.322Z,96655.69
2022-09-10T08:21:00.967Z,96647.25
2022-09-10T08:22:03.587Z,96651.72
2022-09-10T08:23:05.605Z,96651.47
2022-09-10T08:24:08.661Z,96654.56
2022-09-10T08:25:10.261Z,96650.44
2022-09-10T08:26:11.768Z,96647.31
2022-09-10T08:27:13.365Z,96645.53
2022-09-10T08:28:15.700Z,96647.09
2022-09-10T08:29:17.350Z,96636.94
2022-09-10T08:30:18.928Z,96640.19
2022-09-10T08:31:21.447Z,96638.59
2022-09-10T08:32:23.682Z,96648.38
2022-09-10T08:33:25.272Z,96649.94
2022-09-10T08:34:27.305Z,96642.94
2022-09-10T08:35:28.867Z,96645.50
2022-09-10T08:36:30.379Z,96647.34
2022-09-10T08:37:33.422Z,96648.63
2022-09-10T08:38:37.347Z,96639.72
2022-09-10T08:39:39.123Z,96641.47
2022-09-10T08:40:44.634Z,96640.50
2022-09-10T08:42:01.146Z,96643.78
2022-09-10T08:43:02.811Z,96642.41
2022-09-10T08:44:10.329Z,96646.63
2022-09-10T08:45:23.931Z,96634.06
2022-09-10T08:46:29.020Z,96635.94
2022-09-10T08:47:49.286Z,96646.53
2022-09-10T08:49:07.111Z,96640.56
2022-09-10T08:50:32.746Z,96635.66
2022-09-10T08:51:45.745Z,96638.69
2022-09-10T08:52:52.032Z,96634.88
2022-09-10T08:54:19.650Z,96630.72
2022-09-10T08:55:21.099Z,96632.41
2022-09-10T08:56:24.380Z,96629.78
2022-09-10T08:57:33.395Z,96628.88
2022-09-10T08:58:47.243Z,96634.97
2022-09-10T08:59:52.318Z,96630.06
2022-09-10T09:00:57.865Z,96628.53
2022-09-10T09:02:22.434Z,96619.63
2022-09-10T09:03:47.522Z,96621.75
2022-09-10T09:05:00.816Z,96620.28
2022-09-10T09:06:12.995Z,96608.75
2022-09-10T09:07:19.946Z,96609.38
2022-09-10T09:08:27.169Z,96604.00
2022-09-10T09:09:28.701Z,96597.56
2022-09-10T09:10:46.689Z,96603.25
2022-09-10T09:12:15.692Z,96603.41
2022-09-10T09:13:37.311Z,96596.66
2022-09-10T09:14:52.900Z,96602.19
2022-09-10T09:16:06.739Z,96590.22
2022-09-10T09:17:23.277Z,96592.81
2022-09-10T09:18:24.740Z,96583.78
2022-09-10T09:19:50.871Z,96587.72
2022-09-10T09:20:57.492Z,96592.66
2022-09-10T09:22:19.824Z,96590.69
2022-09-10T09:23:33.355Z,96579.78
2022-09-10T09:25:03.214Z,96575.47
2022-09-10T09:26:11.775Z,96571.03
2022-09-10T09:27:20.102Z,96578.25
2022-09-10T09:28:47.202Z,96573.94
2022-09-10T09:30:07.998Z,96570.41
2022-09-10T09:31:22.619Z,96572.72
2022-09-10T09:32:25.339Z,96572.72
2022-09-10T09:33:30.482Z,96563.50
2022-09-10T09:34:54.369Z,96560.13
2022-09-10T09:36:03.098Z,96563.13
2022-09-10T09:37:10.888Z,96559.78
2022-09-10T09:38:18.248Z,96556.72
2022-09-10T09:39:37.999Z,96553.78
2022-09-10T09:40:49.579Z,96552.41
2022-09-10T09:42:18.247Z,96543.50
2022-09-10T09:43:34.460Z,96537.34
2022-09-10T09:44:41.234Z,96538.53
2022-09-10T09:45:47.661Z,96541.25
2022-09-10T09:46:49.815Z,96539.41
2022-09-10T09:47:54.444Z,96539.13
2022-09-10T09:48:59.188Z,96538.53
2022-09-10T09:50:00.895Z,96545.22
2022-09-10T09:51:04.445Z,96539.66
2022-09-10T09:52:22.831Z,96536.66
2022-09-10T09:53:29.335Z,96540.91
2022-09-10T09:55:10.160Z,96535.97
2022-09-10T09:56:00.007Z,96530.19
2022-09-10T09:57:02.952Z,96536.31
2022-09-10T09:58:24.095Z,96527.88
2022-09-10T09:59:30.009Z,96536.03
2022-09-10T10:00:36.430Z,96527.75
2022-09-10T10:01:42.781Z,96523.75
2022-09-10T10:02:44.512Z,96517.44
2022-09-10T10:03:58.615Z,96522.97
2022-09-10T10:05:00.101Z,96529.78
2022-09-10T10:06:03.742Z,96521.25
2022-09-10T10:07:05.349Z,96527.22
2022-09-10T10:08:28.224Z,96523.81
2022-09-10T10:09:34.781Z,96519.22
2022-09-10T10:10:36.349Z,96513.63
2022-09-10T10:11:45.792Z,96512.34
2022-09-10T10:12:51.319Z,96507.41
2022-09-10T10:13:53.036Z,96502.81
2022-09-10T10:14:54.618Z,96504.13
2022-09-10T10:15:56.162Z,96503.47
2022-09-10T10:17:01.047Z,96497.84
2022-09-10T10:18:22.653Z,96500.47
2022-09-10T10:19:40.232Z,96493.91
2022-09-10T10:20:41.769Z,96493.50
2022-09-10T10:21:44.931Z,96495.03
2022-09-10T10:22:48.681Z,96497.13
2022-09-10T10:23:50.249Z,96485.66
2022-09-10T10:24:54.004Z,96491.97
2022-09-10T10:25:55.595Z,96481.53
2022-09-10T10:26:57.394Z,96477.63
2022-09-10T10:27:59.011Z,96481.94
2022-09-10T10:29:20.338Z,96487.84
2022-09-10T10:30:24.211Z,96491.22
2022-09-10T10:31:49.476Z,96492.34
2022-09-10T10:32:58.318Z,96494.41
2022-09-10T10:34:07.986Z,96484.25
2022-09-10T10:35:46.590Z,96490.06
2022-09-10T10:37:07.478Z,96485.72
2022-09-10T10:38:30.748Z,96483.13
2022-09-10T10:39:57.022Z,96482.41
2022-09-10T10:41:16.425Z,96487.50
2022-09-10T10:42:44.615Z,96484.94
2022-09-10T10:44:01.538Z,96490.88
2022-09-10T10:45:08.865Z,96484.78
2022-09-10T10:46:34.413Z,96475.81
2022-09-10T10:47:41.712Z,96482.78
2022-09-10T10:49:11.945Z,96482.41
2022-09-10T10:50:16.259Z,96485.44
2022-09-10T10:51:46.340Z,96488.06
2022-09-10T10:53:14.553Z,96489.78
2022-09-10T10:54:51.802Z,96486.47
2022-09-10T10:56:20.577Z,96475.94
2022-09-10T10:57:47.902Z,96482.66
2022-09-10T10:59:11.488Z,96479.03
2022-09-10T11:00:15.729Z,96476.34
2022-09-10T11:01:23.829Z,96474.41
2022-09-10T11:03:01.876Z,96477.44
2022-09-10T11:04:29.760Z,96474.22
2022-09-10T11:05:42.510Z,96476.34
2022-09-10T11:06:49.813Z,96472.56
2022-09-10T11:07:52.779Z,96471.91
2022-09-10T11:09:04.939Z,96474.09
2022-09-10T11:10:16.363Z,96472.19
2022-09-10T11:11:23.292Z,96471.31
2022-09-10T11:12:38.023Z,96455.75
2022-09-10T11:13:50.550Z,96465.19
2022-09-10T11:15:02.206Z,96459.44
2022-09-10T11:16:09.690Z,96461.91
2022-09-10T11:17:20.340Z,96455.41
2022-09-10T11:18:34.256Z,96451.47
2022-09-10T11:19:56.625Z,96453.41
2022-09-10T11:21:29.923Z,96444.38
2022-09-10T11:22:39.975Z,96446.19
2022-09-10T11:23:46.948Z,96447.56
2022-09-10T11:24:58.086Z,96445.13
2022-09-10T11:26:21.435Z,96435.56
2022-09-10T11:27:30.760Z,96435.44
2022-09-10T11:28:46.924Z,96433.38
2022-09-10T11:30:00.348Z,96418.03
2022-09-10T11:31:15.659Z,96417.88
2022-09-10T11:32:17.178Z,96414.03
2022-09-10T11:33:23.267Z,96413.84
2022-09-10T11:34:47.553Z,96414.84
2022-09-10T11:36:10.956Z,96416.72
2022-09-10T11:37:35.424Z,96406.69
2022-09-10T11:38:59.721Z,96409.19
2022-09-10T11:40:10.913Z,96403.03
2022-09-10T11:41:22.962Z,96410.38
2022-09-10T11:42:39.721Z,96411.44
2022-09-10T11:44:01.814Z,96411.50
2022-09-10T11:45:36.299Z,96403.84
2022-09-10T11:46:47.599Z,96409.06
2022-09-10T11:47:56.488Z,96409.06
2022-09-10T11:49:06.807Z,96418.41
2022-09-10T11:50:34.835Z,96412.69
2022-09-10T11:51:38.963Z,96409.63
2022-09-10T11:52:40.556Z,96416.03
2022-09-10T11:53:42.180Z,96402.13
2022-09-10T11:54:46.736Z,96396.69
2022-09-10T11:56:05.883Z,96396.22
2022-09-10T11:57:26.595Z,96401.09
2022-09-10T11:59:02.582Z,96399.56
2022-09-10T12:00:18.528Z,96389.72
2022-09-10T12:01:22.828Z,96390.09
2022-09-10T12:02:27.531Z,96392.69
2022-09-10T12:04:03.911Z,96391.53
2022-09-10T12:05:23.635Z,96389.16
2022-09-10T12:06:30.709Z,96384.22
2022-09-10T12:07:59.990Z,96389.75
2022-09-10T12:09:01.521Z,96382.47
2022-09-10T12:10:24.257Z,96386.56
2022-09-10T12:11:40.712Z,96382.28
2022-09-10T12:12:45.049Z,96386.91
2022-09-10T12:13:49.477Z,96381.91
2022-09-10T12:14:51.072Z,96391.66
2022-09-10T12:16:00.217Z,96391.16
2022-09-10T12:17:09.654Z,96395.53
2022-09-10T12:18:18.766Z,96390.22
2022-09-10T12:19:37.358Z,96388.13
2022-09-10T12:21:03.662Z,96387.50
2022-09-10T12:22:15.918Z,96386.06
2022-09-10T12:23:25.631Z,96386.16
2022-09-10T12:24:37.751Z,96389.56
2022-09-10T12:25:39.345Z,96391.09
2022-09-10T12:26:43.757Z,96385.19
2022-09-10T12:27:53.552Z,96386.16
2022-09-10T12:28:59.819Z,96381.81
2022-09-10T12:30:42.505Z,96379.50
2022-09-10T12:32:13.559Z,96378.94
2022-09-10T12:33:18.488Z,96376.25
2022-09-10T12:34:20.071Z,96368.44
2022-09-10T12:35:48.918Z,96360.88
2022-09-10T12:36:50.601Z,96353.91
2022-09-10T12:38:30.540Z,96359.75
2022-09-10T12:39:34.371Z,96349.63
2022-09-10T12:40:35.966Z,96356.94
2022-09-10T12:41:37.439Z,96354.47
2022-09-10T12:42:39.031Z,96354.13
2022-09-10T12:43:40.710Z,96360.59
2022-09-10T12:44:42.330Z,96364.00
2022-09-10T12:46:03.283Z,96359.34
2022-09-10T12:47:14.075Z,96352.22
2022-09-10T12:48:17.307Z,96350.28
2022-09-10T12:49:19.008Z,96345.03
2022-09-10T12:50:28.779Z,96355.91
2022-09-10T12:51:39.364Z,96349.31
2022-09-10T12:52:52.893Z,96350.28
2022-09-10T12:54:26.537Z,96352.22
2022-09-10T12:55:54.649Z,96348.38
2022-09-10T12:57:12.860Z,96345.44
2022-09-10T12:58:26.601Z,96338.06
2022-09-10T12:59:58.891Z,96350.69
2022-09-10T13:01:25.036Z,96346.56
2022-09-10T13:02:37.320Z,96341.31
2022-09-10T13:03:50.073Z,96341.09
2022-09-10T13:05:02.018Z,96330.78
2022-09-10T13:06:07.145Z,96333.34